sensor_id;sensor_type;location;lat;lon;timestamp;P1;durP1;ratioP1;P2;durP2;ratioP2
41061;SDS011;26812;42.662;23.352;2022-08-19T00:01:30;7.75;;;6.70;;
41061;SDS011;26812;42.662;23.352;2022-08-19T00:04:00;6.80;;;5.80;;
41061;SDS011;26812;42.662;23.352;2022-08-19T00:06:28;8.82;;;6.75;;
41061;SDS011;26812;42.662;23.352;2022-08-19T00:08:54;6.70;;;6.13;;
41061;SDS011;26812;42.662;23.352;2022-08-19T00:11:20;8.55;;;7.45;;
41061;SDS011;26812;42.662;23.352;2022-08-19T00:13:46;8.98;;;7.93;;
41061;SDS011;26812;42.662;23.352;2022-08-19T00:16:14;10.40;;;8.35;;
41061;SDS011;26812;42.662;23.352;2022-08-19T00:18:40;10.63;;;7.85;;
41061;SDS011;26812;42.662;23.352;2022-08-19T00:21:05;8.45;;;7.47;;
41061;SDS011;26812;42.662;23.352;2022-08-19T00:23:33;9.00;;;6.57;;
41061;SDS011;26812;42.662;23.352;2022-08-19T00:26:01;7.45;;;6.68;;
41061;SDS011;26812;42.662;23.352;2022-08-19T00:28:30;6.68;;;6.00;;
41061;SDS011;26812;42.662;23.352;2022-08-19T00:30:56;8.13;;;6.57;;
41061;SDS011;26812;42.662;23.352;2022-08-19T00:33:21;7.68;;;6.97;;
41061;SDS011;26812;42.662;23.352;2022-08-19T00:35:47;8.43;;;6.60;;
41061;SDS011;26812;42.662;23.352;2022-08-19T00:38:12;7.88;;;6.75;;
41061;SDS011;26812;42.662;23.352;2022-08-19T00:40:38;7.40;;;6.20;;
41061;SDS011;26812;42.662;23.352;2022-08-19T00:43:10;8.48;;;6.22;;
41061;SDS011;26812;42.662;23.352;2022-08-19T00:45:38;7.45;;;6.47;;
41061;SDS011;26812;42.662;23.352;2022-08-19T00:48:06;7.68;;;6.88;;
41061;SDS011;26812;42.662;23.352;2022-08-19T00:50:31;7.45;;;6.68;;
41061;SDS011;26812;42.662;23.352;2022-08-19T00:52:57;7.63;;;5.82;;
41061;SDS011;26812;42.662;23.352;2022-08-19T00:55:25;7.65;;;6.80;;
41061;SDS011;26812;42.662;23.352;2022-08-19T00:58:07;7.40;;;6.70;;
41061;SDS011;26812;42.662;23.352;2022-08-19T01:00:36;7.70;;;6.63;;
41061;SDS011;26812;42.662;23.352;2022-08-19T01:03:03;7.47;;;6.53;;
41061;SDS011;26812;42.662;23.352;2022-08-19T01:05:31;9.23;;;6.68;;
41061;SDS011;26812;42.662;23.352;2022-08-19T01:07:58;9.55;;;7.68;;
41061;SDS011;26812;42.662;23.352;2022-08-19T01:10:27;8.25;;;7.45;;
41061;SDS011;26812;42.662;23.352;2022-08-19T01:12:55;8.18;;;7.07;;
41061;SDS011;26812;42.662;23.352;2022-08-19T01:15:26;8.05;;;6.97;;
41061;SDS011;26812;42.662;23.352;2022-08-19T01:17:55;8.57;;;7.30;;
41061;SDS011;26812;42.662;23.352;2022-08-19T01:20:22;8.10;;;6.85;;
41061;SDS011;26812;42.662;23.352;2022-08-19T01:22:50;7.78;;;6.97;;
41061;SDS011;26812;42.662;23.352;2022-08-19T01:25:18;8.57;;;7.55;;
41061;SDS011;26812;42.662;23.352;2022-08-19T01:27:47;8.75;;;7.40;;
41061;SDS011;26812;42.662;23.352;2022-08-19T01:30:16;7.25;;;6.35;;
41061;SDS011;26812;42.662;23.352;2022-08-19T01:32:47;7.10;;;6.47;;
41061;SDS011;26812;42.662;23.352;2022-08-19T01:35:13;7.80;;;7.10;;
41061;SDS011;26812;42.662;23.352;2022-08-19T01:37:43;8.30;;;6.80;;
41061;SDS011;26812;42.662;23.352;2022-08-19T01:40:08;8.98;;;6.90;;
41061;SDS011;26812;42.662;23.352;2022-08-19T01:42:34;7.30;;;6.60;;
41061;SDS011;26812;42.662;23.352;2022-08-19T01:45:00;7.57;;;6.88;;
41061;SDS011;26812;42.662;23.352;2022-08-19T01:47:25;8.32;;;7.53;;
41061;SDS011;26812;42.662;23.352;2022-08-19T01:49:51;9.10;;;7.35;;
41061;SDS011;26812;42.662;23.352;2022-08-19T01:52:16;8.02;;;7.32;;
41061;SDS011;26812;42.662;23.352;2022-08-19T01:54:42;7.95;;;7.20;;
41061;SDS011;26812;42.662;23.352;2022-08-19T01:57:08;9.40;;;6.82;;
41061;SDS011;26812;42.662;23.352;2022-08-19T01:59:37;13.57;;;7.72;;
41061;SDS011;26812;42.662;23.352;2022-08-19T02:02:04;8.48;;;7.28;;
41061;SDS011;26812;42.662;23.352;2022-08-19T02:04:32;7.85;;;7.07;;
41061;SDS011;26812;42.662;23.352;2022-08-19T02:06:58;7.82;;;6.97;;
41061;SDS011;26812;42.662;23.352;2022-08-19T02:09:24;7.90;;;7.20;;
41061;SDS011;26812;42.662;23.352;2022-08-19T02:11:49;9.65;;;6.55;;
41061;SDS011;26812;42.662;23.352;2022-08-19T02:14:14;8.73;;;7.85;;
41061;SDS011;26812;42.662;23.352;2022-08-19T02:16:40;10.18;;;7.05;;
41061;SDS011;26812;42.662;23.352;2022-08-19T02:19:05;13.10;;;7.60;;
41061;SDS011;26812;42.662;23.352;2022-08-19T02:21:31;15.98;;;7.55;;
41061;SDS011;26812;42.662;23.352;2022-08-19T02:23:57;16.95;;;7.45;;
41061;SDS011;26812;42.662;23.352;2022-08-19T02:26:23;7.78;;;6.63;;
41061;SDS011;26812;42.662;23.352;2022-08-19T02:28:50;8.15;;;7.30;;
41061;SDS011;26812;42.662;23.352;2022-08-19T02:31:17;9.60;;;7.03;;
41061;SDS011;26812;42.662;23.352;2022-08-19T02:33:44;9.73;;;7.82;;
41061;SDS011;26812;42.662;23.352;2022-08-19T02:36:11;7.55;;;6.82;;
41061;SDS011;26812;42.662;23.352;2022-08-19T02:38:38;7.85;;;7.07;;
41061;SDS011;26812;42.662;23.352;2022-08-19T02:41:05;8.98;;;6.88;;
41061;SDS011;26812;42.662;23.352;2022-08-19T02:43:34;9.13;;;7.38;;
41061;SDS011;26812;42.662;23.352;2022-08-19T02:46:18;11.63;;;7.93;;
41061;SDS011;26812;42.662;23.352;2022-08-19T02:48:50;8.32;;;6.88;;
41061;SDS011;26812;42.662;23.352;2022-08-19T02:51:24;10.20;;;7.60;;
41061;SDS011;26812;42.662;23.352;2022-08-19T02:53:52;8.98;;;7.22;;
41061;SDS011;26812;42.662;23.352;2022-08-19T02:56:18;8.18;;;7.22;;
41061;SDS011;26812;42.662;23.352;2022-08-19T02:58:44;11.35;;;7.60;;
41061;SDS011;26812;42.662;23.352;2022-08-19T03:01:10;8.32;;;7.30;;
41061;SDS011;26812;42.662;23.352;2022-08-19T03:03:37;11.77;;;7.50;;
41061;SDS011;26812;42.662;23.352;2022-08-19T03:06:04;7.68;;;6.97;;
41061;SDS011;26812;42.662;23.352;2022-08-19T03:08:29;9.60;;;7.32;;
41061;SDS011;26812;42.662;23.352;2022-08-19T03:10:55;7.88;;;7.07;;
41061;SDS011;26812;42.662;23.352;2022-08-19T03:13:20;14.07;;;7.47;;
41061;SDS011;26812;42.662;23.352;2022-08-19T03:15:46;11.40;;;7.07;;
41061;SDS011;26812;42.662;23.352;2022-08-19T03:18:12;8.13;;;6.95;;
41061;SDS011;26812;42.662;23.352;2022-08-19T03:20:46;7.07;;;6.35;;
41061;SDS011;26812;42.662;23.352;2022-08-19T03:23:14;7.55;;;6.45;;
41061;SDS011;26812;42.662;23.352;2022-08-19T03:25:41;7.32;;;6.63;;
41061;SDS011;26812;42.662;23.352;2022-08-19T03:28:10;7.25;;;6.45;;
41061;SDS011;26812;42.662;23.352;2022-08-19T03:30:37;6.63;;;6.05;;
41061;SDS011;26812;42.662;23.352;2022-08-19T03:33:04;7.55;;;6.85;;
41061;SDS011;26812;42.662;23.352;2022-08-19T03:35:30;8.93;;;7.28;;
41061;SDS011;26812;42.662;23.352;2022-08-19T03:37:55;7.75;;;6.68;;
41061;SDS011;26812;42.662;23.352;2022-08-19T03:40:21;8.63;;;7.18;;
41061;SDS011;26812;42.662;23.352;2022-08-19T03:42:46;7.60;;;6.80;;
41061;SDS011;26812;42.662;23.352;2022-08-19T03:45:12;8.13;;;6.43;;
41061;SDS011;26812;42.662;23.352;2022-08-19T03:47:37;10.27;;;7.75;;
41061;SDS011;26812;42.662;23.352;2022-08-19T03:50:03;7.90;;;7.18;;
41061;SDS011;26812;42.662;23.352;2022-08-19T03:52:29;11.75;;;7.43;;
41061;SDS011;26812;42.662;23.352;2022-08-19T03:54:55;7.22;;;6.53;;
41061;SDS011;26812;42.662;23.352;2022-08-19T03:57:20;7.72;;;6.93;;
41061;SDS011;26812;42.662;23.352;2022-08-19T03:59:46;9.80;;;7.50;;
41061;SDS011;26812;42.662;23.352;2022-08-19T04:02:11;8.15;;;6.60;;
41061;SDS011;26812;42.662;23.352;2022-08-19T04:04:41;7.70;;;6.90;;
41061;SDS011;26812;42.662;23.352;2022-08-19T04:07:08;6.60;;;5.97;;
41061;SDS011;26812;42.662;23.352;2022-08-19T04:09:35;8.68;;;7.18;;
41061;SDS011;26812;42.662;23.352;2022-08-19T04:12:02;7.75;;;7.05;;
41061;SDS011;26812;42.662;23.352;2022-08-19T04:14:30;9.55;;;8.57;;
41061;SDS011;26812;42.662;23.352;2022-08-19T04:16:57;10.15;;;7.97;;
41061;SDS011;26812;42.662;23.352;2022-08-19T04:19:24;7.25;;;6.55;;
41061;SDS011;26812;42.662;23.352;2022-08-19T04:21:51;10.07;;;7.35;;
41061;SDS011;26812;42.662;23.352;2022-08-19T04:24:18;9.57;;;7.30;;
41061;SDS011;26812;42.662;23.352;2022-08-19T04:26:45;8.13;;;7.30;;
41061;SDS011;26812;42.662;23.352;2022-08-19T04:29:12;10.57;;;7.18;;
41061;SDS011;26812;42.662;23.352;2022-08-19T04:31:40;9.05;;;7.63;;
41061;SDS011;26812;42.662;23.352;2022-08-19T04:34:07;10.00;;;7.38;;
41061;SDS011;26812;42.662;23.352;2022-08-19T04:36:36;7.38;;;6.68;;
41061;SDS011;26812;42.662;23.352;2022-08-19T04:39:06;8.68;;;7.68;;
41061;SDS011;26812;42.662;23.352;2022-08-19T04:41:34;7.57;;;6.82;;
41061;SDS011;26812;42.662;23.352;2022-08-19T04:44:18;7.75;;;6.75;;
41061;SDS011;26812;42.662;23.352;2022-08-19T04:46:45;8.80;;;6.65;;
41061;SDS011;26812;42.662;23.352;2022-08-19T04:49:13;10.05;;;7.68;;
41061;SDS011;26812;42.662;23.352;2022-08-19T04:51:40;8.52;;;7.07;;
41061;SDS011;26812;42.662;23.352;2022-08-19T04:54:07;10.50;;;7.18;;
41061;SDS011;26812;42.662;23.352;2022-08-19T04:56:32;7.28;;;6.68;;
41061;SDS011;26812;42.662;23.352;2022-08-19T04:58:58;8.73;;;6.80;;
41061;SDS011;26812;42.662;23.352;2022-08-19T05:01:28;9.27;;;6.82;;
41061;SDS011;26812;42.662;23.352;2022-08-19T05:03:55;7.80;;;6.22;;
41061;SDS011;26812;42.662;23.352;2022-08-19T05:06:21;8.27;;;6.78;;
41061;SDS011;26812;42.662;23.352;2022-08-19T05:08:47;8.50;;;6.93;;
41061;SDS011;26812;42.662;23.352;2022-08-19T05:11:14;11.00;;;6.57;;
41061;SDS011;26812;42.662;23.352;2022-08-19T05:13:46;8.02;;;7.15;;
41061;SDS011;26812;42.662;23.352;2022-08-19T05:16:13;8.65;;;6.65;;
41061;SDS011;26812;42.662;23.352;2022-08-19T05:18:41;10.30;;;7.63;;
41061;SDS011;26812;42.662;23.352;2022-08-19T05:21:25;8.55;;;6.40;;
41061;SDS011;26812;42.662;23.352;2022-08-19T05:24:10;8.45;;;7.50;;
41061;SDS011;26812;42.662;23.352;2022-08-19T05:26:38;8.98;;;6.88;;
41061;SDS011;26812;42.662;23.352;2022-08-19T05:29:06;9.32;;;7.55;;
41061;SDS011;26812;42.662;23.352;2022-08-19T05:31:32;8.00;;;7.20;;
41061;SDS011;26812;42.662;23.352;2022-08-19T05:33:58;7.85;;;6.95;;
41061;SDS011;26812;42.662;23.352;2022-08-19T05:36:27;8.10;;;7.30;;
41061;SDS011;26812;42.662;23.352;2022-08-19T05:38:53;7.72;;;6.63;;
41061;SDS011;26812;42.662;23.352;2022-08-19T05:41:19;6.93;;;6.13;;
41061;SDS011;26812;42.662;23.352;2022-08-19T05:43:45;7.07;;;6.32;;
41061;SDS011;26812;42.662;23.352;2022-08-19T05:46:18;7.15;;;6.32;;
41061;SDS011;26812;42.662;23.352;2022-08-19T05:48:44;8.35;;;6.97;;
41061;SDS011;26812;42.662;23.352;2022-08-19T05:51:10;7.65;;;6.85;;
41061;SDS011;26812;42.662;23.352;2022-08-19T05:53:36;11.10;;;7.43;;
41061;SDS011;26812;42.662;23.352;2022-08-19T05:56:05;7.50;;;6.32;;
41061;SDS011;26812;42.662;23.352;2022-08-19T05:58:36;6.72;;;6.03;;
41061;SDS011;26812;42.662;23.352;2022-08-19T06:01:02;5.82;;;5.28;;
41061;SDS011;26812;42.662;23.352;2022-08-19T06:03:31;8.85;;;6.05;;
41061;SDS011;26812;42.662;23.352;2022-08-19T06:05:58;7.03;;;5.80;;
41061;SDS011;26812;42.662;23.352;2022-08-19T06:08:25;7.18;;;6.18;;
41061;SDS011;26812;42.662;23.352;2022-08-19T06:10:52;6.40;;;5.68;;
41061;SDS011;26812;42.662;23.352;2022-08-19T06:13:18;8.63;;;5.90;;
41061;SDS011;26812;42.662;23.352;2022-08-19T06:15:44;6.03;;;5.43;;
41061;SDS011;26812;42.662;23.352;2022-08-19T06:18:11;7.13;;;5.90;;
41061;SDS011;26812;42.662;23.352;2022-08-19T06:20:37;8.05;;;6.07;;
41061;SDS011;26812;42.662;23.352;2022-08-19T06:23:03;5.60;;;5.10;;
41061;SDS011;26812;42.662;23.352;2022-08-19T06:25:28;8.07;;;5.95;;
41061;SDS011;26812;42.662;23.352;2022-08-19T06:27:54;8.88;;;6.22;;
41061;SDS011;26812;42.662;23.352;2022-08-19T06:30:22;6.32;;;5.72;;
41061;SDS011;26812;42.662;23.352;2022-08-19T06:32:51;8.40;;;5.57;;
41061;SDS011;26812;42.662;23.352;2022-08-19T06:35:25;8.07;;;6.35;;
41061;SDS011;26812;42.662;23.352;2022-08-19T06:37:51;7.68;;;5.72;;
41061;SDS011;26812;42.662;23.352;2022-08-19T06:40:17;10.25;;;6.07;;
41061;SDS011;26812;42.662;23.352;2022-08-19T06:42:47;6.78;;;5.93;;
41061;SDS011;26812;42.662;23.352;2022-08-19T06:45:15;5.95;;;5.45;;
41061;SDS011;26812;42.662;23.352;2022-08-19T06:47:55;9.00;;;6.53;;
41061;SDS011;26812;42.662;23.352;2022-08-19T06:50:21;7.50;;;6.20;;
41061;SDS011;26812;42.662;23.352;2022-08-19T06:52:47;6.90;;;5.85;;
41061;SDS011;26812;42.662;23.352;2022-08-19T06:55:13;6.55;;;5.68;;
41061;SDS011;26812;42.662;23.352;2022-08-19T06:57:40;7.95;;;5.78;;
41061;SDS011;26812;42.662;23.352;2022-08-19T07:00:08;5.30;;;4.80;;
41061;SDS011;26812;42.662;23.352;2022-08-19T07:02:38;9.98;;;6.10;;
41061;SDS011;26812;42.662;23.352;2022-08-19T07:05:04;6.95;;;5.70;;
41061;SDS011;26812;42.662;23.352;2022-08-19T07:07:30;6.40;;;5.70;;
41061;SDS011;26812;42.662;23.352;2022-08-19T07:09:56;6.47;;;5.10;;
41061;SDS011;26812;42.662;23.352;2022-08-19T07:12:26;6.28;;;5.63;;
41061;SDS011;26812;42.662;23.352;2022-08-19T07:14:59;6.80;;;5.65;;
41061;SDS011;26812;42.662;23.352;2022-08-19T07:17:26;6.53;;;5.93;;
41061;SDS011;26812;42.662;23.352;2022-08-19T07:20:03;6.43;;;4.80;;
41061;SDS011;26812;42.662;23.352;2022-08-19T07:22:29;6.85;;;5.65;;
41061;SDS011;26812;42.662;23.352;2022-08-19T07:24:59;7.82;;;5.50;;
41061;SDS011;26812;42.662;23.352;2022-08-19T07:27:48;6.68;;;5.32;;
41061;SDS011;26812;42.662;23.352;2022-08-19T07:30:16;7.15;;;4.90;;
41061;SDS011;26812;42.662;23.352;2022-08-19T07:32:42;7.93;;;6.22;;
41061;SDS011;26812;42.662;23.352;2022-08-19T07:35:08;8.90;;;6.07;;
41061;SDS011;26812;42.662;23.352;2022-08-19T07:37:34;6.85;;;5.53;;
41061;SDS011;26812;42.662;23.352;2022-08-19T07:40:03;6.82;;;6.05;;
41061;SDS011;26812;42.662;23.352;2022-08-19T07:42:30;7.90;;;5.30;;
41061;SDS011;26812;42.662;23.352;2022-08-19T07:44:56;9.48;;;5.65;;
41061;SDS011;26812;42.662;23.352;2022-08-19T07:47:23;5.80;;;4.95;;
41061;SDS011;26812;42.662;23.352;2022-08-19T07:49:48;7.70;;;5.20;;
41061;SDS011;26812;42.662;23.352;2022-08-19T07:52:14;6.53;;;4.97;;
41061;SDS011;26812;42.662;23.352;2022-08-19T07:54:40;5.60;;;4.65;;
41061;SDS011;26812;42.662;23.352;2022-08-19T07:57:06;5.93;;;4.93;;
41061;SDS011;26812;42.662;23.352;2022-08-19T07:59:32;7.50;;;5.53;;
41061;SDS011;26812;42.662;23.352;2022-08-19T08:01:58;10.18;;;6.15;;
41061;SDS011;26812;42.662;23.352;2022-08-19T08:04:27;7.97;;;6.28;;
41061;SDS011;26812;42.662;23.352;2022-08-19T08:07:12;5.97;;;5.25;;
41061;SDS011;26812;42.662;23.352;2022-08-19T08:09:56;7.43;;;5.82;;
41061;SDS011;26812;42.662;23.352;2022-08-19T08:12:23;10.32;;;6.30;;
41061;SDS011;26812;42.662;23.352;2022-08-19T08:14:53;7.20;;;5.47;;
41061;SDS011;26812;42.662;23.352;2022-08-19T08:17:22;5.93;;;5.30;;
41061;SDS011;26812;42.662;23.352;2022-08-19T08:19:49;7.05;;;4.97;;
41061;SDS011;26812;42.662;23.352;2022-08-19T08:22:16;5.47;;;4.68;;
41061;SDS011;26812;42.662;23.352;2022-08-19T08:25:07;6.85;;;5.00;;
41061;SDS011;26812;42.662;23.352;2022-08-19T08:27:38;5.10;;;4.60;;
41061;SDS011;26812;42.662;23.352;2022-08-19T08:30:08;7.45;;;5.05;;
41061;SDS011;26812;42.662;23.352;2022-08-19T08:32:45;7.18;;;4.68;;
41061;SDS011;26812;42.662;23.352;2022-08-19T08:35:12;7.10;;;4.43;;
41061;SDS011;26812;42.662;23.352;2022-08-19T08:37:39;6.15;;;4.00;;
41061;SDS011;26812;42.662;23.352;2022-08-19T08:40:06;5.55;;;4.57;;
41061;SDS011;26812;42.662;23.352;2022-08-19T08:42:44;5.95;;;4.43;;
41061;SDS011;26812;42.662;23.352;2022-08-19T08:45:16;5.55;;;4.32;;
41061;SDS011;26812;42.662;23.352;2022-08-19T08:47:45;5.40;;;4.60;;
41061;SDS011;26812;42.662;23.352;2022-08-19T08:50:16;5.25;;;4.75;;
41061;SDS011;26812;42.662;23.352;2022-08-19T08:52:45;7.25;;;5.25;;
41061;SDS011;26812;42.662;23.352;2022-08-19T08:55:15;5.95;;;4.78;;
41061;SDS011;26812;42.662;23.352;2022-08-19T09:00:30;5.90;;;4.72;;
41061;SDS011;26812;42.662;23.352;2022-08-19T09:02:59;6.65;;;4.28;;
41061;SDS011;26812;42.662;23.352;2022-08-19T09:05:35;4.85;;;4.28;;
41061;SDS011;26812;42.662;23.352;2022-08-19T09:08:33;5.20;;;4.18;;
41061;SDS011;26812;42.662;23.352;2022-08-19T09:11:08;6.03;;;4.35;;
41061;SDS011;26812;42.662;23.352;2022-08-19T09:13:41;6.05;;;4.38;;
41061;SDS011;26812;42.662;23.352;2022-08-19T09:16:19;4.10;;;3.28;;
41061;SDS011;26812;42.662;23.352;2022-08-19T09:18:50;3.47;;;3.17;;
41061;SDS011;26812;42.662;23.352;2022-08-19T09:21:31;3.70;;;3.33;;
41061;SDS011;26812;42.662;23.352;2022-08-19T09:23:57;4.53;;;3.38;;
41061;SDS011;26812;42.662;23.352;2022-08-19T09:26:24;3.97;;;3.63;;
41061;SDS011;26812;42.662;23.352;2022-08-19T09:28:57;4.53;;;3.60;;
41061;SDS011;26812;42.662;23.352;2022-08-19T09:31:25;3.15;;;2.75;;
41061;SDS011;26812;42.662;23.352;2022-08-19T09:33:52;3.63;;;3.33;;
41061;SDS011;26812;42.662;23.352;2022-08-19T09:36:21;5.50;;;3.17;;
41061;SDS011;26812;42.662;23.352;2022-08-19T09:38:49;3.65;;;3.35;;
41061;SDS011;26812;42.662;23.352;2022-08-19T09:41:16;6.03;;;3.17;;
41061;SDS011;26812;42.662;23.352;2022-08-19T09:43:47;4.70;;;3.30;;
41061;SDS011;26812;42.662;23.352;2022-08-19T09:46:17;3.55;;;2.85;;
41061;SDS011;26812;42.662;23.352;2022-08-19T09:48:46;3.20;;;2.92;;
41061;SDS011;26812;42.662;23.352;2022-08-19T09:51:14;3.33;;;2.88;;
41061;SDS011;26812;42.662;23.352;2022-08-19T09:53:46;4.70;;;2.88;;
41061;SDS011;26812;42.662;23.352;2022-08-19T09:56:15;3.28;;;2.80;;
41061;SDS011;26812;42.662;23.352;2022-08-19T09:58:44;3.22;;;2.92;;
41061;SDS011;26812;42.662;23.352;2022-08-19T10:01:15;5.05;;;3.33;;
41061;SDS011;26812;42.662;23.352;2022-08-19T10:03:49;3.15;;;2.72;;
41061;SDS011;26812;42.662;23.352;2022-08-19T10:06:19;3.33;;;2.95;;
41061;SDS011;26812;42.662;23.352;2022-08-19T10:08:46;3.83;;;3.33;;
41061;SDS011;26812;42.662;23.352;2022-08-19T10:11:13;6.18;;;3.22;;
41061;SDS011;26812;42.662;23.352;2022-08-19T10:13:42;2.90;;;2.70;;
41061;SDS011;26812;42.662;23.352;2022-08-19T10:16:15;3.47;;;3.03;;
41061;SDS011;26812;42.662;23.352;2022-08-19T10:18:43;3.75;;;2.72;;
41061;SDS011;26812;42.662;23.352;2022-08-19T10:21:13;2.80;;;2.50;;
41061;SDS011;26812;42.662;23.352;2022-08-19T10:23:40;3.25;;;2.95;;
41061;SDS011;26812;42.662;23.352;2022-08-19T10:26:10;3.10;;;2.40;;
41061;SDS011;26812;42.662;23.352;2022-08-19T10:28:41;4.68;;;3.22;;
41061;SDS011;26812;42.662;23.352;2022-08-19T10:31:11;3.53;;;3.22;;
41061;SDS011;26812;42.662;23.352;2022-08-19T10:33:39;4.00;;;3.35;;
41061;SDS011;26812;42.662;23.352;2022-08-19T10:36:07;3.15;;;2.85;;
41061;SDS011;26812;42.662;23.352;2022-08-19T10:38:35;4.20;;;2.75;;
41061;SDS011;26812;42.662;23.352;2022-08-19T10:41:08;4.05;;;3.33;;
41061;SDS011;26812;42.662;23.352;2022-08-19T10:43:35;4.13;;;3.08;;
41061;SDS011;26812;42.662;23.352;2022-08-19T10:46:03;3.45;;;3.15;;
41061;SDS011;26812;42.662;23.352;2022-08-19T10:48:30;4.57;;;2.78;;
41061;SDS011;26812;42.662;23.352;2022-08-19T10:50:57;4.20;;;2.85;;
41061;SDS011;26812;42.662;23.352;2022-08-19T10:53:41;3.30;;;2.53;;
41061;SDS011;26812;42.662;23.352;2022-08-19T10:56:06;4.65;;;3.28;;
41061;SDS011;26812;42.662;23.352;2022-08-19T10:58:50;3.25;;;2.95;;
41061;SDS011;26812;42.662;23.352;2022-08-19T11:01:16;3.17;;;2.80;;
41061;SDS011;26812;42.662;23.352;2022-08-19T11:03:41;3.72;;;3.28;;
41061;SDS011;26812;42.662;23.352;2022-08-19T11:06:07;3.83;;;3.13;;
41061;SDS011;26812;42.662;23.352;2022-08-19T11:08:34;3.95;;;3.20;;
41061;SDS011;26812;42.662;23.352;2022-08-19T11:11:03;2.95;;;2.67;;
41061;SDS011;26812;42.662;23.352;2022-08-19T11:13:30;3.97;;;3.53;;
41061;SDS011;26812;42.662;23.352;2022-08-19T11:16:03;3.67;;;3.03;;
41061;SDS011;26812;42.662;23.352;2022-08-19T11:18:33;3.28;;;2.97;;
41061;SDS011;26812;42.662;23.352;2022-08-19T11:23:46;3.55;;;2.97;;
41061;SDS011;26812;42.662;23.352;2022-08-19T11:26:13;3.15;;;2.85;;
41061;SDS011;26812;42.662;23.352;2022-08-19T11:28:40;3.38;;;3.08;;
41061;SDS011;26812;42.662;23.352;2022-08-19T11:31:13;5.15;;;3.45;;
41061;SDS011;26812;42.662;23.352;2022-08-19T11:33:41;5.18;;;3.10;;
41061;SDS011;26812;42.662;23.352;2022-08-19T11:36:07;3.40;;;2.92;;
41061;SDS011;26812;42.662;23.352;2022-08-19T11:38:33;3.88;;;3.22;;
41061;SDS011;26812;42.662;23.352;2022-08-19T11:41:01;3.13;;;2.83;;
41061;SDS011;26812;42.662;23.352;2022-08-19T11:43:29;3.35;;;3.05;;
41061;SDS011;26812;42.662;23.352;2022-08-19T11:45:55;3.25;;;2.95;;
41061;SDS011;26812;42.662;23.352;2022-08-19T11:48:21;4.63;;;3.47;;
41061;SDS011;26812;42.662;23.352;2022-08-19T11:50:48;3.40;;;3.10;;
41061;SDS011;26812;42.662;23.352;2022-08-19T11:53:15;4.07;;;3.13;;
41061;SDS011;26812;42.662;23.352;2022-08-19T11:55:43;3.47;;;3.17;;
41061;SDS011;26812;42.662;23.352;2022-08-19T11:58:09;4.47;;;2.72;;
41061;SDS011;26812;42.662;23.352;2022-08-19T12:00:36;3.60;;;3.30;;
41061;SDS011;26812;42.662;23.352;2022-08-19T12:03:01;3.63;;;3.20;;
41061;SDS011;26812;42.662;23.352;2022-08-19T12:05:27;4.47;;;3.03;;
41061;SDS011;26812;42.662;23.352;2022-08-19T12:07:53;6.13;;;3.17;;
41061;SDS011;26812;42.662;23.352;2022-08-19T12:10:19;3.53;;;3.22;;
41061;SDS011;26812;42.662;23.352;2022-08-19T12:12:46;4.15;;;3.40;;
41061;SDS011;26812;42.662;23.352;2022-08-19T12:15:12;4.35;;;3.13;;
41061;SDS011;26812;42.662;23.352;2022-08-19T12:17:39;3.67;;;3.25;;
41061;SDS011;26812;42.662;23.352;2022-08-19T12:20:05;3.28;;;2.97;;
41061;SDS011;26812;42.662;23.352;2022-08-19T12:22:33;3.97;;;3.35;;
41061;SDS011;26812;42.662;23.352;2022-08-19T12:24:59;4.13;;;3.20;;
41061;SDS011;26812;42.662;23.352;2022-08-19T12:27:25;4.00;;;3.35;;
41061;SDS011;26812;42.662;23.352;2022-08-19T12:29:51;5.18;;;3.58;;
41061;SDS011;26812;42.662;23.352;2022-08-19T12:32:16;5.70;;;3.70;;
41061;SDS011;26812;42.662;23.352;2022-08-19T12:34:42;5.60;;;3.45;;
41061;SDS011;26812;42.662;23.352;2022-08-19T12:37:08;3.20;;;3.00;;
41061;SDS011;26812;42.662;23.352;2022-08-19T12:39:36;4.32;;;3.92;;
41061;SDS011;26812;42.662;23.352;2022-08-19T12:42:04;4.93;;;3.60;;
41061;SDS011;26812;42.662;23.352;2022-08-19T12:44:29;4.05;;;3.65;;
41061;SDS011;26812;42.662;23.352;2022-08-19T12:46:57;3.72;;;3.30;;
41061;SDS011;26812;42.662;23.352;2022-08-19T12:49:23;4.40;;;3.92;;
41061;SDS011;26812;42.662;23.352;2022-08-19T12:51:49;3.90;;;3.40;;
41061;SDS011;26812;42.662;23.352;2022-08-19T12:54:15;4.35;;;3.95;;
41061;SDS011;26812;42.662;23.352;2022-08-19T12:56:40;3.65;;;3.35;;
41061;SDS011;26812;42.662;23.352;2022-08-19T12:59:07;4.28;;;3.75;;
41061;SDS011;26812;42.662;23.352;2022-08-19T13:01:33;3.58;;;3.25;;
41061;SDS011;26812;42.662;23.352;2022-08-19T13:03:59;4.80;;;3.35;;
41061;SDS011;26812;42.662;23.352;2022-08-19T13:06:25;3.58;;;3.28;;
41061;SDS011;26812;42.662;23.352;2022-08-19T13:08:51;4.07;;;3.70;;
41061;SDS011;26812;42.662;23.352;2022-08-19T13:11:17;4.40;;;3.58;;
41061;SDS011;26812;42.662;23.352;2022-08-19T13:13:45;3.53;;;3.20;;
41061;SDS011;26812;42.662;23.352;2022-08-19T13:16:13;4.65;;;3.88;;
41061;SDS011;26812;42.662;23.352;2022-08-19T13:18:39;5.72;;;3.80;;
41061;SDS011;26812;42.662;23.352;2022-08-19T13:21:07;4.50;;;3.70;;
41061;SDS011;26812;42.662;23.352;2022-08-19T13:23:36;3.80;;;3.50;;
41061;SDS011;26812;42.662;23.352;2022-08-19T13:26:03;4.25;;;3.85;;
41061;SDS011;26812;42.662;23.352;2022-08-19T13:28:31;3.75;;;3.00;;
41061;SDS011;26812;42.662;23.352;2022-08-19T13:34:04;4.03;;;3.63;;
41061;SDS011;26812;42.662;23.352;2022-08-19T13:36:30;5.20;;;3.90;;
41061;SDS011;26812;42.662;23.352;2022-08-19T13:38:59;4.43;;;3.65;;
41061;SDS011;26812;42.662;23.352;2022-08-19T13:41:24;6.05;;;3.88;;
41061;SDS011;26812;42.662;23.352;2022-08-19T13:43:51;3.92;;;3.50;;
41061;SDS011;26812;42.662;23.352;2022-08-19T13:46:17;4.70;;;3.90;;
41061;SDS011;26812;42.662;23.352;2022-08-19T13:48:42;4.57;;;3.47;;
41061;SDS011;26812;42.662;23.352;2022-08-19T13:51:09;3.38;;;3.08;;
41061;SDS011;26812;42.662;23.352;2022-08-19T13:53:38;4.00;;;3.60;;
41061;SDS011;26812;42.662;23.352;2022-08-19T13:56:07;5.32;;;4.45;;
41061;SDS011;26812;42.662;23.352;2022-08-19T13:58:35;4.18;;;3.78;;
41061;SDS011;26812;42.662;23.352;2022-08-19T14:01:02;3.85;;;3.45;;
41061;SDS011;26812;42.662;23.352;2022-08-19T14:03:29;3.75;;;3.40;;
41061;SDS011;26812;42.662;23.352;2022-08-19T14:05:55;3.95;;;3.58;;
41061;SDS011;26812;42.662;23.352;2022-08-19T14:08:20;5.82;;;4.00;;
41061;SDS011;26812;42.662;23.352;2022-08-19T14:10:46;4.22;;;3.47;;
41061;SDS011;26812;42.662;23.352;2022-08-19T14:13:14;3.85;;;3.50;;
41061;SDS011;26812;42.662;23.352;2022-08-19T14:15:42;4.38;;;3.63;;
41061;SDS011;26812;42.662;23.352;2022-08-19T14:18:09;5.30;;;3.42;;
41061;SDS011;26812;42.662;23.352;2022-08-19T14:20:35;8.85;;;4.13;;
41061;SDS011;26812;42.662;23.352;2022-08-19T14:23:01;5.40;;;3.85;;
41061;SDS011;26812;42.662;23.352;2022-08-19T14:25:27;6.57;;;4.00;;
41061;SDS011;26812;42.662;23.352;2022-08-19T14:27:54;4.25;;;3.47;;
41061;SDS011;26812;42.662;23.352;2022-08-19T14:30:22;4.70;;;4.03;;
41061;SDS011;26812;42.662;23.352;2022-08-19T14:32:51;4.05;;;3.67;;
41061;SDS011;26812;42.662;23.352;2022-08-19T14:35:17;4.03;;;3.63;;
41061;SDS011;26812;42.662;23.352;2022-08-19T14:37:44;4.78;;;3.78;;
41061;SDS011;26812;42.662;23.352;2022-08-19T14:40:10;4.97;;;3.55;;
41061;SDS011;26812;42.662;23.352;2022-08-19T14:42:36;6.13;;;3.25;;
41061;SDS011;26812;42.662;23.352;2022-08-19T14:45:02;4.50;;;3.60;;
41061;SDS011;26812;42.662;23.352;2022-08-19T14:47:30;4.90;;;3.92;;